createdAt,value
2019-02-15T20:00:14.937Z,93.10
2019-02-15T20:02:42.878Z,93.20
2019-02-15T20:05:11.158Z,93.80
2019-02-15T20:07:39.006Z,93.80
2019-02-15T20:10:09.491Z,94.10
2019-02-15T20:12:37.348Z,93.90
2019-02-15T20:15:05.792Z,93.80
2019-02-15T20:17:33.671Z,93.70
2019-02-15T20:20:01.306Z,93.90
2019-02-15T20:22:28.822Z,94.30
2019-02-15T20:24:56.355Z,94.60
2019-02-15T20:27:24.355Z,95.10
2019-02-15T20:29:51.847Z,95.40
2019-02-15T20:32:19.605Z,95.30
2019-02-15T20:34:47.099Z,95.00
2019-02-15T20:37:15.117Z,95.70
2019-02-15T20:39:42.826Z,95.30
2019-02-15T20:42:10.438Z,95.10
2019-02-15T20:44:38.099Z,95.40
2019-02-15T20:47:06.107Z,95.70
2019-02-15T20:49:33.765Z,95.80
2019-02-15T20:52:01.654Z,95.70
2019-02-15T20:54:29.238Z,95.00
2019-02-15T20:56:56.833Z,94.80
2019-02-15T20:59:24.767Z,95.70
2019-02-15T21:01:52.690Z,95.80
2019-02-15T21:04:20.274Z,95.30
2019-02-15T21:06:48.142Z,95.70
2019-02-15T21:09:16.706Z,95.00
2019-02-15T21:11:44.269Z,95.30
2019-02-15T21:14:11.916Z,95.00
2019-02-15T21:16:40.727Z,94.90
2019-02-15T21:19:08.382Z,95.50
2019-02-15T21:21:36.239Z,95.20
2019-02-15T21:24:04.199Z,95.70
2019-02-15T21:26:32.163Z,95.50
2019-02-15T21:29:00.177Z,95.70
2019-02-15T21:31:27.803Z,96.60
2019-02-15T21:33:56.173Z,97.20
2019-02-15T21:36:29.395Z,97.30
2019-02-15T21:38:58.069Z,97.20
2019-02-15T21:41:25.791Z,97.00
2019-02-15T21:43:53.648Z,97.60
2019-02-15T21:46:21.561Z,98.30
2019-02-15T21:48:49.486Z,98.30
2019-02-15T21:51:17.019Z,98.20
2019-02-15T21:53:44.934Z,97.80
2019-02-15T21:56:15.463Z,98.70
2019-02-15T21:58:43.203Z,99.10
2019-02-15T22:01:10.842Z,98.70
2019-02-15T22:03:38.348Z,98.60
2019-02-15T22:06:05.991Z,98.90
2019-02-15T22:08:34.257Z,99.10
2019-02-15T22:11:02.207Z,99.70
2019-02-15T22:13:30.146Z,98.80
2019-02-15T22:15:58.078Z,99.10
2019-02-15T22:18:25.810Z,99.20
2019-02-15T22:20:53.668Z,99.20
2019-02-15T22:23:21.896Z,99.40
2019-02-15T22:25:49.517Z,99.00
2019-02-15T22:28:17.742Z,98.80
2019-02-15T22:30:45.262Z,99.10
2019-02-15T22:33:13.158Z,98.90
2019-02-15T22:35:41.182Z,99.10
2019-02-15T22:38:08.804Z,99.00
2019-02-15T22:40:38.363Z,99.20
2019-02-15T22:43:25.276Z,99.00
2019-02-15T22:45:52.928Z,98.20
2019-02-15T22:48:20.895Z,98.90
2019-02-15T22:50:48.683Z,99.10
2019-02-15T22:53:16.613Z,99.40
2019-02-15T22:55:44.128Z,99.00
2019-02-15T22:58:12.070Z,98.80
2019-02-15T23:00:49.898Z,99.70
2019-02-15T23:03:19.550Z,99.70
2019-02-15T23:05:47.182Z,99.30
2019-02-15T23:08:15.035Z,99.40
2019-02-15T23:10:42.853Z,99.50
2019-02-15T23:13:10.547Z,99.80
2019-02-15T23:15:38.306Z,99.70
2019-02-15T23:18:05.996Z,99.60
2019-02-15T23:20:33.578Z,99.90
2019-02-15T23:23:01.082Z,99.90
2019-02-15T23:25:28.802Z,99.90
2019-02-15T23:27:56.825Z,99.90
2019-02-15T23:30:24.975Z,99.90
2019-02-15T23:32:52.875Z,99.90
2019-02-15T23:35:20.440Z,99.90
2019-02-15T23:37:47.958Z,99.90
2019-02-15T23:40:15.590Z,99.90
2019-02-15T23:42:44.063Z,99.90
2019-02-15T23:45:11.917Z,99.90
2019-02-15T23:47:39.363Z,99.90
2019-02-15T23:50:06.986Z,99.90
2019-02-15T23:52:34.473Z,99.90
2019-02-15T23:55:01.997Z,99.90
2019-02-15T23:57:29.857Z,99.90
2019-02-15T23:59:57.628Z,99.90
